Terminal Aerodrome Forecast
Issued by NWS

Home | Current Version | Previous Version | Text Only | Print | Product List | Glossary On
Versions: 1 2 3 4 5 6 7 8 9 10 11 12 13 14 15 16 17
000
FTUS42 TJSJ 251728
TAFNCM
TAF
TNCM 251728Z 2518/2618 12011KT P6SM VCSH SCT020 SCT050
     FM252300 11006KT P6SM FEW020 SCT035
     FM261400 12011KT P6SM VCSH FEW020 SCT035=

USA.gov is the U.S. government's official web portal to all federal, state and local government web resources and services.